Time;durP1;ratioP1;P1;durP2;ratioP2;P2;SDS_P1;SDS_P2;PMS_P1;PMS_P2;Temp;Humidity;BMP_temperature;BMP_pressure;BME280_temperature;BME280_humidity;BME280_pressure;Samples;Min_cycle;Max_cycle;Signal;HPM_P1;HPM_P2
2021/12/18 00:00:41;;;;;;;30.60;12.82;;;;;;;-2.24;91.01;100373.59;2566525;28;20430;-73
2021/12/18 00:01:57;;;;;;;31.95;13.25;;;;;;;-2.21;91.48;100386.63;2566609;28;20659;-73
2021/12/18 00:03:13;;;;;;;33.17;13.93;;;;;;;-2.19;91.50;100373.88;2566644;28;20050;-72
2021/12/18 00:04:29;;;;;;;32.85;13.90;;;;;;;-2.06;91.35;100381.44;2566614;28;20047;-72
2021/12/18 00:05:44;;;;;;;30.13;13.43;;;;;;;-2.06;91.05;100380.56;2566628;28;20125;-73
2021/12/18 00:07:01;;;;;;;37.10;13.88;;;;;;;-2.13;90.97;100380.22;2566424;28;20350;-73
2021/12/18 00:08:16;;;;;;;39.53;14.45;;;;;;;-2.16;90.97;100374.06;2566609;28;20422;-72
2021/12/18 00:09:33;;;;;;;33.55;13.55;;;;;;;-2.21;90.91;100381.50;2566552;28;20054;-72
2021/12/18 00:10:48;;;;;;;32.60;13.25;;;;;;;-2.22;90.77;100374.59;2566122;28;20125;-73
2021/12/18 00:12:05;;;;;;;37.03;14.00;;;;;;;-2.26;90.92;100385.47;2566563;28;20062;-72
2021/12/18 00:13:21;;;;;;;33.33;13.80;;;;;;;-2.29;90.88;100382.75;2566310;28;20059;-72
2021/12/18 00:14:36;;;;;;;35.00;13.27;;;;;;;-2.32;91.04;100383.47;2566558;28;20053;-72
2021/12/18 00:15:52;;;;;;;35.92;13.95;;;;;;;-2.33;91.26;100389.38;2566475;28;20057;-72
2021/12/18 00:17:08;;;;;;;32.40;13.02;;;;;;;-2.33;91.23;100380.81;2566483;28;20113;-72
2021/12/18 00:18:24;;;;;;;36.63;14.35;;;;;;;-2.27;91.39;100379.47;2566152;28;20429;-72
2021/12/18 00:19:40;;;;;;;36.35;14.00;;;;;;;-2.24;91.29;100377.88;2566347;28;20512;-75
2021/12/18 00:20:57;;;;;;;36.20;13.98;;;;;;;-2.22;91.41;100377.19;2566260;28;20050;-72
2021/12/18 00:22:13;;;;;;;35.03;13.38;;;;;;;-2.24;91.50;100375.31;2566467;28;20082;-73
2021/12/18 00:23:29;;;;;;;30.40;13.45;;;;;;;-2.28;91.32;100382.84;2566246;28;20380;-73
2021/12/18 00:24:44;;;;;;;30.73;12.90;;;;;;;-2.22;91.13;100382.31;2566397;28;20051;-73
2021/12/18 00:26:00;;;;;;;33.25;12.63;;;;;;;-2.27;90.75;100388.84;2566220;28;20054;-72
2021/12/18 00:27:15;;;;;;;30.88;12.07;;;;;;;-2.33;90.78;100388.53;2566448;28;20061;-73
2021/12/18 00:28:31;;;;;;;28.55;12.00;;;;;;;-2.36;90.76;100391.78;2566427;28;20057;-72
2021/12/18 00:29:47;;;;;;;30.67;11.90;;;;;;;-2.41;90.78;100396.66;2566494;28;20171;-72
2021/12/18 00:31:03;;;;;;;36.80;12.77;;;;;;;-2.44;90.79;100386.22;2566419;28;20054;-72
2021/12/18 00:32:18;;;;;;;31.20;12.98;;;;;;;-2.45;90.99;100392.16;2566288;28;20146;-73
2021/12/18 00:33:34;;;;;;;28.38;11.88;;;;;;;-2.46;90.94;100387.84;2566179;28;20054;-72
2021/12/18 00:34:50;;;;;;;29.52;12.77;;;;;;;-2.46;91.15;100392.97;2566340;28;20058;-72
2021/12/18 00:36:05;;;;;;;29.35;11.90;;;;;;;-2.45;91.09;100389.59;2566395;28;20062;-72
2021/12/18 00:37:21;;;;;;;32.45;12.50;;;;;;;-2.44;91.07;100390.50;2566426;28;20568;-72
2021/12/18 00:38:39;;;;;;;27.55;11.63;;;;;;;-2.43;91.29;100393.13;2566403;28;20055;-72
2021/12/18 00:39:57;;;;;;;29.88;12.52;;;;;;;-2.43;91.20;100388.00;2566040;28;20076;-72
2021/12/18 00:41:26;;;;;;;28.80;12.45;;;;;;;-2.43;90.83;100388.00;2566372;28;20751;-72
2021/12/18 00:42:47;;;;;;;32.63;12.73;;;;;;;-2.45;90.76;100392.16;2566044;28;20055;-72
2021/12/18 00:44:04;;;;;;;31.83;12.52;;;;;;;-2.44;90.75;100390.50;2566451;28;20065;-72
2021/12/18 00:45:20;;;;;;;30.52;12.90;;;;;;;-2.45;90.99;100388.69;2566202;28;20061;-72
2021/12/18 00:46:38;;;;;;;28.42;12.95;;;;;;;-2.45;90.78;100393.81;2566176;28;20541;-73
2021/12/18 00:47:53;;;;;;;29.77;12.30;;;;;;;-2.44;90.83;100393.94;2566105;28;20117;-72
2021/12/18 00:49:15;;;;;;;26.95;12.90;;;;;;;-2.38;90.70;100395.06;2566277;28;20055;-72
2021/12/18 00:50:31;;;;;;;30.17;12.00;;;;;;;-2.33;90.90;100397.09;2566180;28;20055;-72
2021/12/18 00:51:46;;;;;;;31.13;11.85;;;;;;;-2.35;90.62;100385.00;2566020;28;20402;-72
2021/12/18 00:53:02;;;;;;;24.73;11.13;;;;;;;-2.36;90.66;100389.22;2565880;28;20541;-73
2021/12/18 00:54:18;;;;;;;31.40;12.25;;;;;;;-2.38;90.85;100389.94;2566016;28;20065;-72
2021/12/18 00:55:36;;;;;;;30.23;11.50;;;;;;;-2.39;90.52;100390.72;2566140;28;20046;-73
2021/12/18 00:56:51;;;;;;;28.67;12.38;;;;;;;-2.43;90.46;100388.00;2566149;28;20093;-73
2021/12/18 00:58:07;;;;;;;28.85;12.30;;;;;;;-2.39;90.54;100394.19;2566135;28;20051;-72
2021/12/18 00:59:23;;;;;;;25.10;11.40;;;;;;;-2.34;90.63;100397.03;2566024;28;20145;-72
2021/12/18 01:00:41;;;;;;;29.10;12.48;;;;;;;-2.30;90.68;100401.50;2566062;28;20486;-72
2021/12/18 01:01:57;;;;;;;27.73;12.05;;;;;;;-2.28;90.50;100399.91;2565905;28;20057;-72
2021/12/18 01:03:20;;;;;;;29.50;12.43;;;;;;;-2.26;90.53;100395.75;2566220;28;20047;-72
2021/12/18 01:04:36;;;;;;;30.65;12.57;;;;;;;-2.20;90.82;100403.81;2565946;28;20059;-74
2021/12/18 01:05:52;;;;;;;26.10;11.30;;;;;;;-2.20;90.59;100393.53;2565576;28;20505;-72
2021/12/18 01:07:07;;;;;;;26.77;10.50;;;;;;;-2.25;90.42;100400.06;2566164;28;20556;-73
2021/12/18 01:08:23;;;;;;;26.60;11.23;;;;;;;-2.27;90.55;100400.00;2566079;28;20105;-72
2021/12/18 01:12:49;;;;;;;23.98;9.93;;;;;;;-2.25;90.40;100400.06;2565852;28;20124;-71
2021/12/18 01:15:51;;;;;;;24.47;10.73;;;;;;;-2.32;90.07;100392.84;2565847;28;20062;-72
2021/12/18 01:23:05;;;;;;;20.15;9.38;;;;;;;-2.64;90.49;100392.81;2565890;28;20055;-72
2021/12/18 01:24:21;;;;;;;25.15;11.60;;;;;;;-2.69;90.37;100394.22;2565704;28;20911;-74
2021/12/18 01:25:36;;;;;;;24.33;10.93;;;;;;;-2.75;90.03;100394.75;2565696;28;20055;-74
2021/12/18 01:26:52;;;;;;;23.30;9.70;;;;;;;-2.75;90.20;100396.44;2565807;28;20105;-73
2021/12/18 01:28:08;;;;;;;25.73;10.60;;;;;;;-2.75;90.71;100402.47;2565774;28;20050;-72
2021/12/18 01:29:24;;;;;;;21.33;10.07;;;;;;;-2.74;90.74;100395.63;2565908;28;20066;-72
2021/12/18 01:30:39;;;;;;;25.67;10.82;;;;;;;-2.76;90.45;100398.13;2565919;28;20098;-72
2021/12/18 01:31:55;;;;;;;25.13;10.70;;;;;;;-2.76;90.52;100395.56;2565747;28;20059;-72
2021/12/18 01:33:11;;;;;;;26.17;11.13;;;;;;;-2.76;90.33;100400.69;2565670;28;20113;-72
2021/12/18 01:34:26;;;;;;;29.65;11.30;;;;;;;-2.80;90.21;100400.41;2565585;28;20101;-72
2021/12/18 01:35:43;;;;;;;24.23;10.60;;;;;;;-2.81;90.09;100402.09;2565496;28;20565;-72
2021/12/18 01:36:58;;;;;;;21.42;9.77;;;;;;;-2.85;90.05;100395.91;2565813;28;20078;-72
2021/12/18 01:38:15;;;;;;;23.13;10.00;;;;;;;-2.85;90.44;100397.59;2565956;28;20046;-72
2021/12/18 01:39:31;;;;;;;26.30;11.48;;;;;;;-2.82;90.75;100397.75;2565734;28;20512;-72
2021/12/18 01:40:46;;;;;;;29.65;12.20;;;;;;;-2.80;90.76;100393.59;2565627;28;20446;-72
2021/12/18 01:44:09;;;;;;;31.02;14.23;;;;;;;-2.60;90.82;100393.88;2565683;28;20054;-72
2021/12/18 01:51:18;;;;;;;26.08;11.23;;;;;;;-2.45;90.41;100384.47;2565449;28;20089;-72
2021/12/18 01:52:34;;;;;;;31.33;11.80;;;;;;;-2.46;90.71;100385.28;2554866;29;20894;-72
2021/12/18 01:53:55;;;;;;;29.77;12.02;;;;;;;-2.46;90.73;100382.69;2559363;28;20062;-72
2021/12/18 01:55:12;;;;;;;25.83;11.50;;;;;;;-2.48;90.57;100379.19;2565674;28;20474;-72
2021/12/18 01:56:27;;;;;;;24.10;10.88;;;;;;;-2.50;90.50;100393.59;2565844;28;20865;-72
2021/12/18 01:57:43;;;;;;;23.85;11.23;;;;;;;-2.51;90.48;100394.41;2565661;28;20057;-72
2021/12/18 01:58:59;;;;;;;24.88;11.07;;;;;;;-2.51;90.25;100393.50;2565350;28;20490;-72
2021/12/18 02:00:17;;;;;;;26.83;11.50;;;;;;;-2.50;90.12;100396.16;2565435;28;20051;-72
2021/12/18 02:01:33;;;;;;;25.25;11.05;;;;;;;-2.48;90.50;100393.66;2565394;28;20097;-72
2021/12/18 02:02:49;;;;;;;24.58;10.65;;;;;;;-2.39;90.59;100394.19;2565476;28;20648;-72
2021/12/18 02:04:05;;;;;;;23.65;10.48;;;;;;;-2.35;90.63;100395.25;2565648;28;20084;-72
2021/12/18 02:05:21;;;;;;;22.92;10.80;;;;;;;-2.32;90.38;100391.16;2565851;28;20096;-72
2021/12/18 02:06:36;;;;;;;24.02;11.60;;;;;;;-2.27;90.66;100393.97;2565426;28;20097;-72
2021/12/18 02:07:52;;;;;;;23.85;10.70;;;;;;;-2.23;90.42;100392.47;2565733;28;20051;-72
2021/12/18 02:09:09;;;;;;;25.17;10.25;;;;;;;-2.02;90.33;100385.06;2565177;28;20050;-72
2021/12/18 02:10:28;;;;;;;22.77;10.52;;;;;;;-1.99;89.97;100400.63;2565466;28;20057;-72
2021/12/18 02:11:44;;;;;;;26.10;11.73;;;;;;;-2.01;89.75;100391.97;2565412;28;20046;-72
2021/12/18 02:13:21;;;;;;;33.63;13.20;;;;;;;-1.90;90.03;100393.44;2565393;28;20077;-72
2021/12/18 02:21:15;;;;;;;26.27;12.70;;;;;;;-1.78;88.94;100382.06;2565582;28;20093;-72
2021/12/18 02:22:30;;;;;;;33.42;13.57;;;;;;;-1.83;89.20;100376.66;2565449;28;20051;-72
2021/12/18 02:23:46;;;;;;;32.47;13.30;;;;;;;-1.85;89.26;100380.84;2565426;28;20042;-72
2021/12/18 02:25:03;;;;;;;31.58;14.30;;;;;;;-1.83;89.26;100378.34;2565498;28;20066;-72
2021/12/18 02:26:21;;;;;;;29.25;12.85;;;;;;;-1.83;89.63;100375.78;2565298;28;20509;-72
2021/12/18 02:27:36;;;;;;;28.90;13.60;;;;;;;-1.88;89.30;100378.13;2565323;28;20050;-72
2021/12/18 02:28:55;;;;;;;37.78;14.68;;;;;;;-1.91;89.23;100370.22;2565442;28;20573;-73
2021/12/18 02:30:11;;;;;;;37.92;14.25;;;;;;;-1.93;89.62;100375.31;2565337;28;20111;-73
2021/12/18 02:31:27;;;;;;;33.05;14.88;;;;;;;-1.95;89.66;100373.44;2565156;28;20062;-73
2021/12/18 02:32:43;;;;;;;34.13;14.75;;;;;;;-1.97;90.04;100381.06;2565554;28;20047;-73
2021/12/18 02:33:59;;;;;;;35.38;14.75;;;;;;;-1.97;90.07;100381.06;2565552;28;20051;-73
2021/12/18 02:35:31;;;;;;;34.70;14.55;;;;;;;-1.94;90.03;100376.09;2565424;28;20490;-72
2021/12/18 02:36:48;;;;;;;29.53;13.73;;;;;;;-1.92;90.11;100371.03;2565518;28;20043;-73
2021/12/18 02:38:13;;;;;;;34.65;13.80;;;;;;;-1.90;89.85;100375.47;2565247;28;20587;-72
2021/12/18 02:41:39;;;;;;;27.40;11.88;;;;;;;-1.78;89.38;100366.66;2515012;29;20088;-72
2021/12/18 02:42:51;;;;;;;28.63;12.77;;;;;;;-1.83;89.13;100362.94;2543972;28;20066;-73
2021/12/18 02:44:10;;;;;;;29.13;12.75;;;;;;;-1.86;89.31;100369.69;2565250;28;20473;-72
2021/12/18 02:45:25;;;;;;;30.60;12.95;;;;;;;-1.89;89.12;100372.09;2565381;28;20222;-73
2021/12/18 02:46:41;;;;;;;32.28;12.70;;;;;;;-1.89;89.19;100376.31;2565606;28;20581;-72
2021/12/18 02:47:58;;;;;;;27.92;13.40;;;;;;;-1.93;89.46;100370.16;2565493;28;20051;-72
2021/12/18 02:49:15;;;;;;;28.25;12.10;;;;;;;-1.95;89.56;100371.78;2565293;28;20512;-72
2021/12/18 02:50:31;;;;;;;27.08;12.43;;;;;;;-1.95;89.43;100378.56;2565237;28;20105;-72
2021/12/18 02:51:46;;;;;;;27.83;12.73;;;;;;;-1.96;89.62;100369.97;2565501;28;20047;-72
2021/12/18 02:53:04;;;;;;;27.30;13.00;;;;;;;-1.97;89.38;100373.34;2565402;28;20055;-73
2021/12/18 02:54:20;;;;;;;28.25;13.13;;;;;;;-1.97;89.44;100370.78;2565284;28;20090;-73
2021/12/18 02:55:35;;;;;;;25.77;11.70;;;;;;;-1.97;89.41;100370.78;2565152;28;20054;-73
2021/12/18 02:56:51;;;;;;;28.15;12.93;;;;;;;-2.00;89.39;100366.38;2565241;28;20672;-73
2021/12/18 02:58:07;;;;;;;27.88;12.90;;;;;;;-2.01;89.58;100372.31;2565331;28;20059;-73
2021/12/18 02:59:24;;;;;;;28.90;12.32;;;;;;;-2.04;89.50;100371.28;2565215;28;20054;-73
2021/12/18 03:00:40;;;;;;;26.65;12.85;;;;;;;-2.07;89.65;100376.25;2565636;28;20057;-72
2021/12/18 03:02:02;;;;;;;30.63;12.52;;;;;;;-2.08;90.01;100377.91;2567326;28;20058;-74
2021/12/18 03:03:18;;;;;;;27.55;11.90;;;;;;;-2.08;89.86;100382.19;2567211;28;20592;-74
2021/12/18 03:04:36;;;;;;;25.25;12.57;;;;;;;-2.11;89.70;100379.41;2567214;28;20058;-72
2021/12/18 03:06:07;;;;;;;26.25;13.07;;;;;;;-2.10;89.78;100376.06;2567219;28;20051;-73
2021/12/18 03:07:25;;;;;;;24.58;11.57;;;;;;;-2.10;89.82;100376.94;2567398;28;20054;-72
2021/12/18 03:09:00;;;;;;;26.60;12.10;;;;;;;-2.09;89.52;100376.16;2567165;28;20050;-72
2021/12/18 03:22:59;;;;;;;22.63;10.27;;;;;;;-2.01;89.41;100356.03;2520735;29;20481;-73
2021/12/18 03:25:38;;;;;;;26.05;11.93;;;;;;;-1.99;88.88;100364.69;2566853;28;20065;-73
2021/12/18 03:26:54;;;;;;;27.40;12.25;;;;;;;-1.92;88.74;100359.09;2567022;28;20112;-72
2021/12/18 03:28:10;;;;;;;24.17;11.23;;;;;;;-1.79;88.74;100368.31;2567025;28;20061;-72
2021/12/18 03:29:26;;;;;;;26.63;11.48;;;;;;;-1.73;88.88;100365.19;2566975;28;20153;-74
2021/12/18 03:30:42;;;;;;;26.83;11.98;;;;;;;-1.67;88.79;100362.97;2566846;28;20074;-72
2021/12/18 03:31:57;;;;;;;26.85;11.30;;;;;;;-1.66;88.59;100357.03;2567048;28;20055;-73
2021/12/18 03:33:13;;;;;;;26.65;11.65;;;;;;;-1.68;88.63;100355.16;2567063;28;20047;-73
2021/12/18 03:34:28;;;;;;;27.15;12.10;;;;;;;-1.42;88.47;100352.28;2566808;28;20076;-72
2021/12/18 03:35:45;;;;;;;23.45;11.32;;;;;;;-1.39;88.31;100353.22;2566683;28;20080;-72
2021/12/18 03:37:02;;;;;;;28.58;11.80;;;;;;;-1.50;88.18;100352.69;2566770;28;20054;-73
2021/12/18 03:38:17;;;;;;;29.52;13.50;;;;;;;-1.62;88.37;100353.81;2566709;28;20057;-73
2021/12/18 03:39:33;;;;;;;27.05;11.80;;;;;;;-1.67;88.52;100359.50;2566863;28;20054;-73
2021/12/18 03:40:49;;;;;;;27.58;11.48;;;;;;;-1.76;88.83;100362.47;2567107;28;20050;-72
2021/12/18 03:42:06;;;;;;;25.85;11.63;;;;;;;-1.82;89.05;100351.84;2566651;28;20137;-72
2021/12/18 03:43:22;;;;;;;24.05;11.48;;;;;;;-1.85;89.13;100356.03;2566683;28;20058;-73
2021/12/18 03:44:38;;;;;;;28.02;11.60;;;;;;;-1.85;89.36;100350.03;2566753;28;20051;-72
2021/12/18 03:45:53;;;;;;;24.60;12.45;;;;;;;-1.83;89.35;100351.00;2566869;28;20145;-72
2021/12/18 03:47:09;;;;;;;30.75;13.00;;;;;;;-1.78;89.40;100349.53;2566372;28;20054;-72
2021/12/18 03:48:25;;;;;;;24.27;11.57;;;;;;;-1.76;89.64;100349.63;2566784;28;20051;-72
2021/12/18 03:49:40;;;;;;;27.67;13.30;;;;;;;-1.74;89.76;100348.03;2566444;28;20600;-73
2021/12/18 03:50:56;;;;;;;26.88;12.48;;;;;;;-1.73;89.72;100350.69;2566538;28;20209;-72
2021/12/18 03:52:12;;;;;;;29.45;12.48;;;;;;;-1.68;89.78;100350.03;2566876;28;20054;-73
2021/12/18 03:53:27;;;;;;;25.88;12.32;;;;;;;-1.68;89.74;100352.59;2566689;28;20053;-72
2021/12/18 03:54:43;;;;;;;26.25;12.68;;;;;;;-1.65;89.83;100356.22;2566885;28;20121;-72
2021/12/18 03:56:00;;;;;;;26.25;12.25;;;;;;;-1.64;89.88;100352.84;2566574;28;20149;-72
2021/12/18 03:57:16;;;;;;;27.90;12.45;;;;;;;-1.61;90.03;100358.13;2566443;28;20185;-73
2021/12/18 03:58:31;;;;;;;26.75;11.93;;;;;;;-1.58;89.96;100360.00;2566847;28;20493;-73
2021/12/18 03:59:47;;;;;;;27.30;12.35;;;;;;;-1.59;90.27;100356.53;2566611;28;20049;-73
2021/12/18 04:01:03;;;;;;;26.13;12.38;;;;;;;-1.56;89.94;100354.09;2566453;28;20144;-72
2021/12/18 04:02:19;;;;;;;29.48;13.85;;;;;;;-1.56;90.02;100356.69;2555898;29;20058;-73
2021/12/18 04:03:35;;;;;;;32.63;14.38;;;;;;;-1.58;89.62;100355.72;2560264;28;20137;-72
2021/12/18 04:04:51;;;;;;;34.20;14.50;;;;;;;-1.61;89.85;100358.13;2566669;28;20051;-72
2021/12/18 04:06:06;;;;;;;34.05;14.88;;;;;;;-1.63;89.96;100354.59;2566609;28;20051;-73
2021/12/18 04:07:22;;;;;;;30.35;14.05;;;;;;;-1.63;89.88;100353.72;2566771;28;20109;-73
2021/12/18 04:08:38;;;;;;;31.08;13.63;;;;;;;-1.65;89.99;100360.47;2566671;28;20043;-73
2021/12/18 04:09:53;;;;;;;30.52;14.95;;;;;;;-1.64;90.11;100360.56;2566350;28;20050;-72
2021/12/18 04:11:09;;;;;;;30.45;13.10;;;;;;;-1.62;90.14;100361.50;2566650;28;20588;-72
2021/12/18 04:12:25;;;;;;;27.45;12.95;;;;;;;-1.60;90.08;100364.16;2566247;28;20520;-73
2021/12/18 04:13:44;;;;;;;32.85;14.40;;;;;;;-1.57;90.25;100364.31;2566049;28;20863;-73
2021/12/18 04:15:00;;;;;;;27.45;12.80;;;;;;;-1.56;90.40;100355.81;2565939;28;20108;-72
2021/12/18 04:16:16;;;;;;;29.50;12.88;;;;;;;-1.52;90.34;100357.72;2566657;28;20051;-72
2021/12/18 04:17:32;;;;;;;29.15;13.10;;;;;;;-1.50;90.12;100357.81;2566380;28;20061;-73
2021/12/18 04:18:48;;;;;;;25.73;12.05;;;;;;;-1.49;90.34;100360.44;2566419;28;20051;-72
2021/12/18 04:20:04;;;;;;;28.95;12.65;;;;;;;-1.47;90.15;100355.41;2566343;28;20984;-74
2021/12/18 04:21:20;;;;;;;32.47;12.18;;;;;;;-1.45;90.13;100354.69;2566378;28;20105;-74
2021/12/18 04:22:36;;;;;;;30.73;14.27;;;;;;;-1.39;90.11;100360.94;2566608;28;20058;-74
2021/12/18 04:23:51;;;;;;;30.05;12.77;;;;;;;-1.38;89.83;100365.25;2566497;28;20051;-73
2021/12/18 04:25:07;;;;;;;28.75;13.07;;;;;;;-1.35;89.63;100357.72;2566447;28;20062;-72
2021/12/18 04:26:23;;;;;;;27.02;12.90;;;;;;;-1.33;89.34;100362.13;2566342;28;20572;-72
2021/12/18 04:27:39;;;;;;;24.50;12.98;;;;;;;-1.36;89.28;100359.41;2566202;28;20055;-73
2021/12/18 04:28:55;;;;;;;26.52;11.82;;;;;;;-1.38;89.42;100362.69;2566510;28;20066;-73
2021/12/18 04:30:11;;;;;;;27.17;12.15;;;;;;;-1.42;89.25;100353.94;2566233;28;20054;-73
2021/12/18 04:31:27;;;;;;;22.23;11.27;;;;;;;-1.45;89.46;100353.78;2566499;28;20062;-73
2021/12/18 04:32:43;;;;;;;27.30;12.50;;;;;;;-1.47;89.71;100356.25;2566251;28;20097;-73
2021/12/18 04:33:59;;;;;;;29.40;13.07;;;;;;;-1.48;89.55;100349.38;2566458;28;20490;-73
2021/12/18 04:35:15;;;;;;;25.35;12.38;;;;;;;-1.48;89.83;100354.50;2566499;28;20057;-73
2021/12/18 04:36:31;;;;;;;24.95;12.20;;;;;;;-1.47;89.66;100352.84;2566397;28;20070;-72
2021/12/18 04:37:47;;;;;;;27.20;12.65;;;;;;;-1.47;89.68;100351.13;2566432;28;20074;-73
2021/12/18 04:39:03;;;;;;;25.98;12.07;;;;;;;-1.47;89.84;100353.69;2566143;28;20494;-73
2021/12/18 04:40:24;;;;;;;23.23;11.55;;;;;;;-1.49;90.06;100355.31;2566359;28;20464;-73
2021/12/18 04:41:49;;;;;;;24.25;12.35;;;;;;;-1.48;89.97;100358.78;2565390;28;20043;-73
2021/12/18 04:43:05;;;;;;;28.15;12.90;;;;;;;-1.49;89.92;100362.16;2565903;28;20504;-72
2021/12/18 04:44:20;;;;;;;29.40;13.38;;;;;;;-1.51;89.89;100356.06;2566336;28;20109;-72
2021/12/18 04:45:36;;;;;;;29.58;12.88;;;;;;;-1.52;90.01;100356.88;2565603;28;20055;-72
2021/12/18 04:46:53;;;;;;;25.38;12.35;;;;;;;-1.55;90.20;100365.28;2566244;28;20054;-73
2021/12/18 04:48:09;;;;;;;29.98;13.00;;;;;;;-1.60;90.17;100359.91;2566349;28;20054;-72
2021/12/18 04:49:24;;;;;;;27.88;12.68;;;;;;;-1.63;90.08;100361.41;2566129;28;20050;-73
2021/12/18 04:50:40;;;;;;;30.70;13.38;;;;;;;-1.66;90.34;100364.72;2566079;28;20206;-76
2021/12/18 04:51:56;;;;;;;30.33;12.65;;;;;;;-1.68;90.35;100363.75;2566324;28;20054;-72
2021/12/18 04:53:12;;;;;;;27.33;12.00;;;;;;;-1.73;90.16;100357.50;2566270;28;20501;-72
2021/12/18 04:57:18;;;;;;;28.00;11.82;;;;;;;-1.82;90.01;100363.03;2744346;23;20064;-78
2021/12/18 04:58:34;;;;;;;21.77;10.65;;;;;;;-1.86;89.97;100366.25;2549690;29;20043;-80
2021/12/18 04:59:50;;;;;;;30.30;12.43;;;;;;;-1.90;89.88;100362.63;2551725;29;20271;-79
2021/12/18 05:01:05;;;;;;;25.67;11.82;;;;;;;-1.94;89.86;100360.69;2551815;29;20047;-80
2021/12/18 05:02:25;;;;;;;28.52;11.25;;;;;;;-2.00;89.90;100363.81;2550167;29;20150;-79
2021/12/18 05:03:42;;;;;;;24.48;11.32;;;;;;;-2.02;89.95;100364.53;2551069;29;20111;-79
2021/12/18 05:04:57;;;;;;;24.85;11.07;;;;;;;-2.08;89.92;100364.22;2551192;29;20401;-81
2021/12/18 05:06:13;;;;;;;26.50;11.23;;;;;;;-2.14;89.93;100363.06;2551107;28;20057;-80
2021/12/18 05:07:29;;;;;;;24.05;10.57;;;;;;;-2.22;89.81;100363.44;2551209;29;20047;-79
2021/12/18 05:08:45;;;;;;;23.65;11.05;;;;;;;-2.27;89.86;100365.75;2552700;28;20325;-79
2021/12/18 05:10:01;;;;;;;27.92;11.95;;;;;;;-2.34;89.94;100374.78;2552218;29;20079;-80
2021/12/18 05:11:17;;;;;;;27.42;12.43;;;;;;;-2.37;90.30;100377.19;2549251;29;20090;-80
2021/12/18 05:12:32;;;;;;;30.35;13.85;;;;;;;-2.40;90.59;100377.03;2552574;29;20470;-80
2021/12/18 05:13:48;;;;;;;30.33;12.93;;;;;;;-2.42;90.46;100378.63;2552183;29;20109;-80
2021/12/18 05:15:06;;;;;;;31.15;13.30;;;;;;;-2.46;90.78;100377.56;2550430;29;20496;-79
2021/12/18 05:16:21;;;;;;;30.20;13.88;;;;;;;-2.51;90.40;100373.88;2549178;29;20061;-81
2021/12/18 05:17:37;;;;;;;29.20;13.00;;;;;;;-2.56;90.33;100385.53;2551322;29;20066;-81
2021/12/18 05:18:53;;;;;;;26.58;12.20;;;;;;;-2.59;90.67;100377.69;2550640;28;20059;-79
2021/12/18 05:20:09;;;;;;;31.92;12.07;;;;;;;-2.57;90.76;100373.53;2551112;28;20129;-80
2021/12/18 05:21:24;;;;;;;33.97;13.73;;;;;;;-2.58;91.11;100377.78;2552050;28;20055;-79
2021/12/18 05:22:40;;;;;;;28.73;12.43;;;;;;;-2.57;91.01;100374.41;2551540;29;20059;-79
2021/12/18 05:23:56;;;;;;;29.60;12.45;;;;;;;-2.57;91.21;100376.09;2547712;28;20051;-79
2021/12/18 05:25:12;;;;;;;27.27;12.20;;;;;;;-2.58;91.11;100369.19;2550034;29;20142;-79
2021/12/18 05:26:27;;;;;;;26.35;11.48;;;;;;;-2.57;91.18;100369.28;2550331;29;20070;-82
2021/12/18 05:27:43;;;;;;;28.95;12.32;;;;;;;-2.60;90.93;100373.34;2550836;29;20070;-80
2021/12/18 05:28:59;;;;;;;26.77;12.02;;;;;;;-2.59;90.88;100368.28;2550599;29;20051;-79
2021/12/18 05:30:15;;;;;;;24.90;10.98;;;;;;;-2.66;90.05;100368.75;2550325;28;20623;-79
2021/12/18 05:31:30;;;;;;;29.50;11.15;;;;;;;-2.74;89.66;100363.19;2550244;28;20097;-79
2021/12/18 05:32:46;;;;;;;23.20;10.43;;;;;;;-2.82;89.39;100369.56;2550660;29;20162;-82
2021/12/18 05:34:04;;;;;;;26.45;11.23;;;;;;;-2.86;89.59;100358.28;2550069;29;20051;-80
2021/12/18 05:35:20;;;;;;;25.67;10.90;;;;;;;-2.90;89.99;100361.44;2550603;28;20047;-82
2021/12/18 05:36:51;;;;;;;25.27;10.75;;;;;;;-2.91;90.20;100361.38;2550479;29;20470;-81
2021/12/18 05:38:07;;;;;;;23.67;10.43;;;;;;;-2.95;90.42;100360.28;2551034;29;20075;-81
2021/12/18 05:39:25;;;;;;;29.05;12.30;;;;;;;-2.95;90.17;100359.41;2550144;29;20051;-82
2021/12/18 05:41:07;;;;;;;26.42;12.10;;;;;;;-2.94;90.52;100367.19;2550797;28;20120;-81
2021/12/18 05:42:28;;;;;;;31.27;12.05;;;;;;;-2.87;90.18;100366.72;2547975;29;20086;-79
2021/12/18 05:43:44;;;;;;;28.83;12.57;;;;;;;-2.83;90.42;100370.34;2550442;28;20101;-81
2021/12/18 05:45:00;;;;;;;24.75;11.50;;;;;;;-2.78;90.72;100362.94;2550219;29;20661;-80
2021/12/18 05:46:16;;;;;;;32.05;13.05;;;;;;;-2.79;90.58;100358.59;2550059;29;20127;-81
2021/12/18 05:47:31;;;;;;;32.53;12.40;;;;;;;-2.74;91.14;100360.63;2549993;29;20102;-80
2021/12/18 05:48:47;;;;;;;32.00;13.80;;;;;;;-2.74;91.41;100363.19;2551008;29;20470;-80
2021/12/18 05:50:03;;;;;;;35.67;12.75;;;;;;;-2.74;91.39;100365.75;2549779;29;20055;-79
2021/12/18 05:51:20;;;;;;;33.42;14.07;;;;;;;-2.71;91.21;100362.50;2549801;29;20632;-80
2021/12/18 05:52:35;;;;;;;32.13;13.82;;;;;;;-2.64;91.69;100366.28;2550618;29;20047;-80
2021/12/18 05:53:51;;;;;;;38.95;14.63;;;;;;;-2.60;91.71;100371.66;2550641;29;20059;-80
2021/12/18 05:55:08;;;;;;;36.67;15.27;;;;;;;-2.58;91.52;100375.22;2550464;28;20047;-80
2021/12/18 05:56:23;;;;;;;35.28;14.07;;;;;;;-2.58;91.58;100364.97;2550896;28;20054;-80
2021/12/18 05:57:39;;;;;;;33.35;14.10;;;;;;;-2.59;91.49;100381.13;2550974;29;20070;-80
2021/12/18 05:58:55;;;;;;;35.35;13.90;;;;;;;-2.65;91.07;100375.66;2549842;29;20537;-80
2021/12/18 06:00:12;;;;;;;28.65;12.38;;;;;;;-2.66;91.18;100378.13;2550293;29;20059;-79
2021/12/18 06:01:28;;;;;;;34.28;13.70;;;;;;;-2.67;91.46;100379.81;2548799;29;20055;-82
2021/12/18 06:02:43;;;;;;;31.98;13.93;;;;;;;-2.68;91.52;100379.72;2550677;29;20051;-80
2021/12/18 06:03:59;;;;;;;33.78;14.02;;;;;;;-2.70;91.38;100377.09;2550206;29;20181;-80
2021/12/18 06:05:15;;;;;;;34.47;13.82;;;;;;;-2.74;91.11;100377.69;2550787;29;20051;-80
2021/12/18 06:06:31;;;;;;;33.53;13.30;;;;;;;-2.78;91.14;100375.75;2550481;29;20059;-79
2021/12/18 06:07:58;;;;;;;34.42;13.13;;;;;;;-2.83;91.02;100372.91;2552264;29;20054;-80
2021/12/18 06:09:13;;;;;;;27.88;11.20;;;;;;;-2.91;90.99;100372.47;2551043;29;20103;-80
2021/12/18 06:10:33;;;;;;;27.08;11.93;;;;;;;-3.00;90.37;100375.41;2551363;28;20478;-80
2021/12/18 06:11:48;;;;;;;22.98;10.60;;;;;;;-2.95;90.31;100369.66;2550075;29;20097;-80
2021/12/18 06:13:04;;;;;;;32.78;12.85;;;;;;;-2.95;90.14;100367.97;2551153;29;20058;-80
2021/12/18 06:14:19;;;;;;;25.13;11.65;;;;;;;-3.01;90.07;100365.94;2550765;29;20097;-81
2021/12/18 06:15:35;;;;;;;22.75;10.63;;;;;;;-3.08;90.01;100368.94;2550416;29;20061;-79
2021/12/18 06:16:51;;;;;;;24.15;10.88;;;;;;;-3.12;90.03;100361.88;2549915;29;20051;-80
2021/12/18 06:18:06;;;;;;;29.50;12.30;;;;;;;-3.16;89.97;100362.50;2550212;29;20578;-82
2021/12/18 06:19:22;;;;;;;24.38;11.07;;;;;;;-3.22;89.81;100365.59;2550215;29;20062;-79
2021/12/18 06:20:38;;;;;;;27.90;11.38;;;;;;;-3.31;89.57;100365.94;2551640;29;20067;-80
2021/12/18 06:21:53;;;;;;;21.45;9.98;;;;;;;-3.36;89.73;100362.19;2549443;28;20048;-80
2021/12/18 06:23:09;;;;;;;27.92;11.23;;;;;;;-3.43;89.63;100370.31;2550615;29;20051;-79
2021/12/18 06:24:26;;;;;;;22.40;10.70;;;;;;;-3.47;89.83;100373.50;2550660;29;20107;-80
2021/12/18 06:25:42;;;;;;;23.50;10.15;;;;;;;-3.47;90.38;100369.25;2549530;29;20111;-81
2021/12/18 06:26:57;;;;;;;26.23;11.68;;;;;;;-3.46;90.27;100367.59;2550397;29;20059;-80
2021/12/18 06:28:13;;;;;;;26.55;12.10;;;;;;;-3.46;90.40;100365.03;2551899;29;20138;-79
2021/12/18 06:29:30;;;;;;;26.65;11.68;;;;;;;-3.45;90.85;100370.22;2549639;29;20047;-78
2021/12/18 06:30:46;;;;;;;28.13;11.70;;;;;;;-3.46;90.53;100367.59;2550346;29;20059;-79
2021/12/18 06:32:02;;;;;;;26.95;11.38;;;;;;;-3.48;90.28;100367.47;2550712;29;20130;-79
2021/12/18 06:33:18;;;;;;;23.95;11.07;;;;;;;-3.47;90.38;100363.25;2549731;28;20048;-80